Time;durP1;ratioP1;P1;durP2;ratioP2;P2;SDS_P1;SDS_P2;PMS_P1;PMS_P2;Temp;Humidity;BMP_temperature;BMP_pressure;BME280_temperature;BME280_humidity;BME280_pressure;Samples;Min_cycle;Max_cycle;Signal;HPM_P1;HPM_P2
2023/10/07 00:01:53;;;;;;;6.00;5.25;;;11.60;99.90;;;;;;5050096;28;20226;-90
2023/10/07 00:04:19;;;;;;;5.57;4.67;;;12.00;99.90;;;;;;5053696;28;20649;-90
2023/10/07 00:06:45;;;;;;;6.17;4.77;;;11.90;99.90;;;;;;5052690;28;20189;-90
2023/10/07 00:09:12;;;;;;;6.10;4.63;;;12.10;99.90;;;;;;5062472;28;20268;-90
2023/10/07 00:11:39;;;;;;;5.97;4.70;;;11.80;99.90;;;;;;5071688;28;20182;-90
2023/10/07 00:14:09;;;;;;;6.85;4.70;;;11.70;99.90;;;;;;5063629;28;20205;-89
2023/10/07 00:16:36;;;;;;;6.18;4.32;;;11.60;99.90;;;;;;5074255;28;20248;-89
2023/10/07 00:19:03;;;;;;;7.50;4.65;;;11.90;99.90;;;;;;5075961;28;20205;-90
2023/10/07 00:21:52;;;;;;;6.80;4.75;;;11.00;99.90;;;;;;5071193;28;20191;-90
2023/10/07 00:24:17;;;;;;;6.03;4.80;;;11.50;99.90;;;;;;5049054;28;20192;-90
2023/10/07 00:26:47;;;;;;;4.95;4.38;;;11.30;99.90;;;;;;5074666;28;20165;-90
2023/10/07 00:29:12;;;;;;;6.25;5.18;;;11.50;99.90;;;;;;5074205;28;20185;-90
2023/10/07 00:31:40;;;;;;;7.00;5.30;;;11.60;99.90;;;;;;5072300;28;20197;-90
2023/10/07 00:34:16;;;;;;;7.53;4.60;;;11.70;99.90;;;;;;5070604;28;20211;-90
2023/10/07 00:36:42;;;;;;;8.15;4.00;;;11.80;99.90;;;;;;5050172;28;20275;-90
2023/10/07 00:39:09;;;;;;;5.37;4.50;;;11.90;99.90;;;;;;5052768;28;20248;-90
2023/10/07 00:41:50;;;;;;;5.10;4.60;;;11.30;99.90;;;;;;5053731;28;20185;-90
2023/10/07 00:44:22;;;;;;;4.70;4.20;;;11.50;99.90;;;;;;5049754;28;20200;-90
2023/10/07 00:49:40;;;;;;;6.95;4.60;;;11.30;99.90;;;;;;5050907;28;20699;-90
2023/10/07 00:52:14;;;;;;;5.75;5.03;;;11.30;99.90;;;;;;5053300;28;20223;-90
2023/10/07 00:59:59;;;;;;;6.05;4.80;;;11.30;99.90;;;;;;5053479;28;20207;-89
2023/10/07 01:02:31;;;;;;;6.25;4.50;;;11.70;99.90;;;;;;5054585;28;20208;-90
2023/10/07 01:05:13;;;;;;;5.95;4.53;;;11.70;99.90;;;;;;5049433;28;20185;-90
2023/10/07 01:07:40;;;;;;;5.75;4.45;;;11.20;99.90;;;;;;5051716;28;20195;-89
2023/10/07 01:12:38;;;;;;;5.60;4.30;;;11.40;99.90;;;;;;5057090;28;20217;-90
2023/10/07 01:15:18;;;;;;;5.65;3.95;;;11.50;99.90;;;;;;5052726;28;20757;-90
2023/10/07 01:17:47;;;;;;;5.25;4.15;;;11.00;99.90;;;;;;5037656;28;20188;-90
2023/10/07 01:20:13;;;;;;;7.90;4.47;;;11.20;99.90;;;;;;5047330;28;20276;-90
2023/10/07 01:22:44;;;;;;;5.75;4.30;;;11.50;99.90;;;;;;5054528;28;20203;-90
2023/10/07 01:25:17;;;;;;;6.35;4.70;;;11.20;99.90;;;;;;5074385;28;20254;-90
2023/10/07 01:27:53;;;;;;;5.10;4.35;;;11.50;99.90;;;;;;5073064;28;20189;-89
2023/10/07 01:30:26;;;;;;;6.45;4.70;;;11.20;99.90;;;;;;5067516;28;20186;-89
2023/10/07 01:33:23;;;;;;;4.40;3.88;;;10.80;99.90;;;;;;5051324;28;20326;-90
2023/10/07 01:36:13;;;;;;;5.95;5.00;;;11.30;99.90;;;;;;5051816;28;20189;-90
2023/10/07 01:38:44;;;;;;;6.22;4.50;;;11.20;99.90;;;;;;5053268;28;20299;-90
2023/10/07 01:41:20;;;;;;;4.70;3.88;;;10.60;99.90;;;;;;5045311;28;20187;-90
2023/10/07 01:46:27;;;;;;;6.20;4.63;;;11.40;99.90;;;;;;5045298;28;20185;-89
2023/10/07 01:48:57;;;;;;;4.45;3.83;;;11.40;99.90;;;;;;5051502;28;20181;-90
2023/10/07 01:51:27;;;;;;;5.20;4.18;;;11.30;99.90;;;;;;5051403;28;20200;-90
2023/10/07 01:53:56;;;;;;;6.00;4.55;;;11.60;99.90;;;;;;5040453;28;20248;-89
2023/10/07 01:56:29;;;;;;;8.63;4.10;;;11.40;99.90;;;;;;5051437;28;20674;-90
2023/10/07 01:58:58;;;;;;;5.93;4.18;;;11.10;99.90;;;;;;5051094;28;20235;-90
2023/10/07 02:01:28;;;;;;;7.43;5.00;;;11.00;99.90;;;;;;5047691;28;20227;-90
2023/10/07 02:03:57;;;;;;;4.85;3.10;;;10.90;99.90;;;;;;5050246;28;20210;-90
2023/10/07 02:06:24;;;;;;;5.78;4.10;;;10.90;99.90;;;;;;5051128;28;20188;-90
2023/10/07 02:08:50;;;;;;;5.82;3.85;;;11.00;99.90;;;;;;5051411;28;20184;-89
2023/10/07 02:11:25;;;;;;;6.70;4.40;;;11.10;99.90;;;;;;5047041;28;20659;-89
2023/10/07 02:13:52;;;;;;;5.45;4.10;;;10.80;99.90;;;;;;5045267;28;20823;-90
2023/10/07 02:16:17;;;;;;;7.03;5.13;;;11.30;99.90;;;;;;5049861;28;20184;-90
2023/10/07 02:18:44;;;;;;;5.97;4.23;;;11.20;99.90;;;;;;5045523;28;20194;-89
2023/10/07 02:21:10;;;;;;;5.82;4.70;;;10.70;99.90;;;;;;5049076;28;20176;-90
2023/10/07 02:23:45;;;;;;;6.07;4.40;;;11.00;99.90;;;;;;5043692;28;20580;-90
2023/10/07 02:26:21;;;;;;;5.43;3.83;;;11.00;99.90;;;;;;5050983;28;21011;-90
2023/10/07 02:28:52;;;;;;;5.40;4.50;;;10.90;99.90;;;;;;5043662;28;20184;-90
2023/10/07 02:31:22;;;;;;;6.47;3.90;;;10.70;99.90;;;;;;5054575;28;20192;-90
2023/10/07 02:33:57;;;;;;;5.55;4.13;;;10.80;99.90;;;;;;5075819;28;20184;-89
2023/10/07 02:38:56;;;;;;;5.05;4.10;;;10.80;99.90;;;;;;5068859;28;20196;-90
2023/10/07 02:41:24;;;;;;;7.57;4.65;;;10.50;99.90;;;;;;5070441;28;20198;-90
2023/10/07 02:43:50;;;;;;;6.13;4.15;;;10.90;99.90;;;;;;5052369;28;20240;-89
2023/10/07 02:46:31;;;;;;;6.70;4.43;;;10.40;99.90;;;;;;5054962;28;20588;-90
2023/10/07 02:49:04;;;;;;;6.47;4.38;;;10.90;99.90;;;;;;5047871;28;20243;-90
2023/10/07 02:51:34;;;;;;;7.18;5.00;;;11.10;99.90;;;;;;5038108;28;20201;-90
2023/10/07 02:54:21;;;;;;;5.20;4.00;;;10.80;99.90;;;;;;5053270;28;20223;-90
2023/10/07 02:56:55;;;;;;;5.97;4.13;;;10.90;99.90;;;;;;5055279;28;20195;-90
2023/10/07 02:59:27;;;;;;;4.75;3.60;;;10.90;99.90;;;;;;5054382;28;20214;-90
2023/10/07 03:04:41;;;;;;;5.78;4.07;;;10.40;99.90;;;;;;5056128;28;20334;-90
2023/10/07 03:07:13;;;;;;;5.40;4.15;;;10.60;99.90;;;;;;5069352;28;20167;-89
2023/10/07 03:09:42;;;;;;;6.43;4.47;;;9.90;99.90;;;;;;5076886;28;20189;-90
2023/10/07 03:12:12;;;;;;;6.38;4.50;;;10.20;99.90;;;;;;5062231;28;20203;-90
2023/10/07 03:14:43;;;;;;;6.30;4.32;;;10.80;99.90;;;;;;5053184;28;20185;-89
2023/10/07 03:17:18;;;;;;;6.28;4.35;;;10.30;99.90;;;;;;5054721;28;20198;-89
2023/10/07 03:19:56;;;;;;;5.65;4.45;;;10.70;99.90;;;;;;5054360;28;20269;-89
2023/10/07 03:22:31;;;;;;;8.15;4.10;;;10.50;99.90;;;;;;5055424;28;20737;-89
2023/10/07 03:25:00;;;;;;;5.13;4.20;;;9.90;99.90;;;;;;5057730;28;20197;-89
2023/10/07 03:27:26;;;;;;;5.10;4.25;;;9.90;99.90;;;;;;5076180;28;20191;-89
2023/10/07 03:30:12;;;;;;;3.95;3.30;;;10.20;99.90;;;;;;5073711;28;20191;-89
2023/10/07 03:32:57;;;;;;;6.88;4.25;;;10.50;99.90;;;;;;5061674;28;20207;-88
2023/10/07 03:38:10;;;;;;;6.93;4.35;;;10.20;99.90;;;;;;5053177;28;20249;-89
2023/10/07 03:40:38;;;;;;;7.22;4.72;;;10.20;99.90;;;;;;5055676;28;20208;-89
2023/10/07 03:43:08;;;;;;;5.65;3.70;;;10.10;99.90;;;;;;5054650;28;20196;-89
2023/10/07 03:45:36;;;;;;;5.20;4.05;;;10.40;99.90;;;;;;5054667;28;20179;-89
2023/10/07 03:48:20;;;;;;;6.45;4.07;;;10.90;99.90;;;;;;5053815;28;20180;-89
2023/10/07 03:50:48;;;;;;;4.60;3.85;;;10.40;99.90;;;;;;5053296;28;20171;-89
2023/10/07 03:53:14;;;;;;;4.97;4.10;;;10.40;99.90;;;;;;5052216;28;20296;-89
2023/10/07 03:55:43;;;;;;;6.00;4.53;;;10.70;99.90;;;;;;5052706;28;20241;-89
2023/10/07 03:58:08;;;;;;;5.80;5.25;;;10.30;99.90;;;;;;5052858;28;20186;-89
2023/10/07 04:00:35;;;;;;;5.33;3.83;;;10.20;99.90;;;;;;5053015;28;20575;-89
2023/10/07 04:03:07;;;;;;;7.75;4.07;;;10.60;99.90;;;;;;5053405;28;20206;-88
2023/10/07 04:05:36;;;;;;;6.03;4.30;;;10.60;99.90;;;;;;5052520;28;20633;-89
2023/10/07 04:08:02;;;;;;;5.07;4.22;;;10.30;99.90;;;;;;5051952;28;20278;-89
2023/10/07 04:10:36;;;;;;;7.53;4.43;;;10.20;99.90;;;;;;5053680;28;20183;-89
2023/10/07 04:13:09;;;;;;;5.15;3.75;;;10.30;99.90;;;;;;5071174;28;20246;-89
2023/10/07 04:15:50;;;;;;;7.90;5.00;;;10.10;99.90;;;;;;5074346;28;20167;-89
2023/10/07 04:18:17;;;;;;;7.28;4.22;;;10.10;99.90;;;;;;5076317;28;20185;-89
2023/10/07 04:20:51;;;;;;;5.35;4.50;;;10.00;99.90;;;;;;5075664;28;20204;-89
2023/10/07 04:23:25;;;;;;;5.43;4.20;;;10.30;99.90;;;;;;5071153;28;20187;-89
2023/10/07 04:25:55;;;;;;;5.97;4.32;;;9.80;99.90;;;;;;5063488;28;20201;-89
2023/10/07 04:28:21;;;;;;;5.28;4.10;;;10.40;99.90;;;;;;5047705;28;20191;-89
2023/10/07 04:30:47;;;;;;;6.68;4.95;;;10.20;99.90;;;;;;5068343;28;20192;-90
2023/10/07 04:33:17;;;;;;;6.60;4.30;;;10.00;99.90;;;;;;5052520;28;20209;-89
2023/10/07 04:35:49;;;;;;;6.25;4.65;;;10.30;99.90;;;;;;5051954;28;20685;-89
2023/10/07 04:43:37;;;;;;;9.95;4.68;;;9.30;99.90;;;;;;5052360;28;20226;-89
2023/10/07 04:46:21;;;;;;;5.57;4.07;;;9.60;99.90;;;;;;5051061;28;20210;-89
2023/10/07 04:48:56;;;;;;;7.93;4.57;;;10.20;99.90;;;;;;5051137;28;20606;-89
2023/10/07 04:54:01;;;;;;;6.20;4.80;;;9.80;99.90;;;;;;5052501;28;20218;-89
2023/10/07 04:56:27;;;;;;;4.60;4.10;;;10.30;99.90;;;;;;5067439;28;20191;-89
2023/10/07 04:58:53;;;;;;;5.63;3.80;;;9.80;99.90;;;;;;5051099;28;20230;-89
2023/10/07 05:01:30;;;;;;;5.65;4.38;;;9.90;99.90;;;;;;5052020;28;20188;-89
2023/10/07 05:03:57;;;;;;;5.40;4.00;;;9.90;99.90;;;;;;5051597;28;20210;-89
2023/10/07 05:06:25;;;;;;;5.65;4.20;;;9.80;99.90;;;;;;5049260;28;20210;-89
2023/10/07 05:08:51;;;;;;;6.47;4.20;;;9.60;99.90;;;;;;5049367;28;20274;-89
2023/10/07 05:11:18;;;;;;;4.80;3.60;;;10.20;99.90;;;;;;5054788;28;20436;-89
2023/10/07 05:13:45;;;;;;;7.22;3.92;;;9.70;99.90;;;;;;5054697;28;20206;-89
2023/10/07 05:16:14;;;;;;;5.65;4.20;;;9.90;99.90;;;;;;5052017;28;20184;-89
2023/10/07 05:18:40;;;;;;;5.35;4.03;;;10.30;99.90;;;;;;5050901;28;20743;-90
2023/10/07 05:21:06;;;;;;;6.65;4.43;;;10.00;99.90;;;;;;5051385;28;20650;-90
2023/10/07 05:23:36;;;;;;;10.85;4.90;;;9.70;99.90;;;;;;5051665;28;20211;-90
2023/10/07 05:26:09;;;;;;;6.20;4.30;;;9.20;99.90;;;;;;5051695;28;20172;-90
2023/10/07 05:28:35;;;;;;;7.30;4.05;;;10.10;99.90;;;;;;5064322;28;20536;-90
2023/10/07 05:31:05;;;;;;;7.22;4.75;;;9.50;99.90;;;;;;5077062;28;20191;-90
2023/10/07 05:33:35;;;;;;;6.03;4.35;;;9.60;99.90;;;;;;5065618;28;20194;-91
2023/10/07 05:36:11;;;;;;;4.72;4.15;;;10.00;99.90;;;;;;5046957;28;20200;-89
2023/10/07 05:38:38;;;;;;;6.07;4.18;;;9.80;99.90;;;;;;5050637;28;20183;-90
2023/10/07 05:41:06;;;;;;;5.18;3.95;;;9.70;99.90;;;;;;5055561;28;20672;-88
2023/10/07 05:43:32;;;;;;;7.18;4.10;;;10.00;99.90;;;;;;5052065;28;20217;-90
2023/10/07 05:45:58;;;;;;;5.60;4.38;;;9.70;99.90;;;;;;5056724;28;20181;-88
2023/10/07 05:48:24;;;;;;;4.95;4.05;;;9.70;99.90;;;;;;5052953;28;20219;-90
2023/10/07 05:50:50;;;;;;;4.85;4.15;;;10.20;99.90;;;;;;5070367;28;20196;-90
2023/10/07 05:53:16;;;;;;;6.43;4.73;;;10.20;99.90;;;;;;5074390;28;20198;-89
2023/10/07 05:55:42;;;;;;;6.20;4.83;;;10.00;99.90;;;;;;5072854;28;20175;-89
2023/10/07 05:58:07;;;;;;;7.88;4.63;;;9.60;99.90;;;;;;5052170;28;20189;-88
2023/10/07 06:00:35;;;;;;;8.20;5.70;;;10.10;99.90;;;;;;5052702;28;20229;-88
2023/10/07 06:03:06;;;;;;;6.00;5.00;;;10.00;99.90;;;;;;5052777;28;20255;-89
2023/10/07 06:05:33;;;;;;;7.20;4.95;;;9.70;99.90;;;;;;5055692;28;20239;-92
2023/10/07 06:07:59;;;;;;;5.95;4.47;;;9.70;99.90;;;;;;5054129;28;20186;-88
2023/10/07 06:10:25;;;;;;;4.32;3.80;;;10.20;99.90;;;;;;5053199;28;20187;-90
2023/10/07 06:12:54;;;;;;;5.97;4.53;;;9.80;99.90;;;;;;5052373;28;20215;-88
2023/10/07 06:15:23;;;;;;;6.40;4.90;;;9.90;99.90;;;;;;5046679;28;20194;-92
2023/10/07 06:17:49;;;;;;;6.30;4.55;;;10.40;99.90;;;;;;5053659;28;20661;-88
2023/10/07 06:20:15;;;;;;;6.03;4.00;;;10.10;99.90;;;;;;5078832;28;20206;-87
2023/10/07 06:22:48;;;;;;;6.40;4.13;;;10.50;99.90;;;;;;5066124;28;20273;-89
2023/10/07 06:25:17;;;;;;;6.40;4.47;;;10.40;99.90;;;;;;5052223;28;20472;-88
2023/10/07 06:27:44;;;;;;;7.30;4.45;;;10.10;99.90;;;;;;5053925;28;20219;-88
2023/10/07 06:30:20;;;;;;;5.15;4.07;;;10.70;99.90;;;;;;5055437;28;20241;-87
2023/10/07 06:32:54;;;;;;;6.22;3.80;;;10.30;99.90;;;;;;5055778;28;20210;-89
2023/10/07 06:35:25;;;;;;;6.53;5.82;;;10.50;99.90;;;;;;5052083;28;20244;-88
2023/10/07 06:37:57;;;;;;;6.53;4.00;;;10.50;99.90;;;;;;5053101;28;20280;-89
2023/10/07 06:40:25;;;;;;;5.63;3.63;;;10.80;99.90;;;;;;5052325;28;20751;-89
2023/10/07 06:42:52;;;;;;;6.63;4.57;;;10.80;99.90;;;;;;5054894;28;20731;-89
2023/10/07 06:45:18;;;;;;;6.10;4.00;;;10.70;99.90;;;;;;5056302;28;20685;-88
2023/10/07 06:47:46;;;;;;;6.63;4.70;;;10.80;99.90;;;;;;5053526;28;20183;-87
2023/10/07 06:50:27;;;;;;;5.72;4.20;;;11.40;99.90;;;;;;5057749;28;20668;-89
2023/10/07 06:52:55;;;;;;;7.18;4.75;;;11.10;99.90;;;;;;5055007;28;20253;-89
2023/10/07 06:55:21;;;;;;;7.65;4.95;;;10.90;99.90;;;;;;5056069;28;20239;-88
2023/10/07 06:57:48;;;;;;;9.05;6.40;;;11.60;99.90;;;;;;5057772;28;20658;-89
2023/10/07 07:00:25;;;;;;;7.13;4.80;;;11.80;99.90;;;;;;5052564;28;20278;-89
2023/10/07 07:02:57;;;;;;;6.78;4.85;;;11.80;99.90;;;;;;5052460;28;20289;-89
2023/10/07 07:05:24;;;;;;;7.07;4.40;;;12.10;99.90;;;;;;5050753;28;20194;-92
2023/10/07 07:07:52;;;;;;;6.82;4.22;;;14.30;99.90;;;;;;5039428;28;20292;-90
2023/10/07 07:10:28;;;;;;;7.15;4.65;;;12.70;99.90;;;;;;5053813;28;20672;-92
2023/10/07 07:12:59;;;;;;;6.90;4.72;;;13.40;99.90;;;;;;5053057;28;20256;-91
2023/10/07 07:15:36;;;;;;;6.85;4.78;;;13.50;99.90;;;;;;5054756;28;20181;-93
2023/10/07 07:18:39;;;;;;;6.28;5.00;;;13.50;99.90;;;;;;5054834;28;20189;-87
2023/10/07 07:23:32;;;;;;;6.80;4.47;;;14.20;99.90;;;;;;5058202;28;20562;-88
2023/10/07 07:28:31;;;;;;;4.57;4.13;;;14.90;99.80;;;;;;5049180;28;20210;-88
2023/10/07 07:31:00;;;;;;;5.53;4.68;;;14.70;99.60;;;;;;5052756;28;20232;-88
2023/10/07 07:33:34;;;;;;;8.52;6.13;;;15.00;99.70;;;;;;5053306;28;20235;-87
2023/10/07 07:36:06;;;;;;;8.30;5.18;;;15.00;99.80;;;;;;5052802;28;20192;-88
2023/10/07 07:38:43;;;;;;;7.15;5.95;;;15.10;99.90;;;;;;5050437;28;20243;-88
2023/10/07 07:41:09;;;;;;;4.97;3.95;;;14.90;99.80;;;;;;5053294;28;20181;-88
2023/10/07 07:43:39;;;;;;;9.48;4.57;;;15.00;99.90;;;;;;5050491;28;20217;-88
2023/10/07 07:49:06;;;;;;;5.68;4.43;;;14.60;99.90;;;;;;5053797;28;20689;-88
2023/10/07 07:51:37;;;;;;;8.48;4.63;;;14.90;99.90;;;;;;5052614;28;20190;-88
2023/10/07 07:54:06;;;;;;;7.80;5.53;;;15.30;99.90;;;;;;5054111;28;20210;-88
2023/10/07 07:56:34;;;;;;;9.38;5.40;;;15.30;99.80;;;;;;5069819;28;20317;-88
2023/10/07 07:59:13;;;;;;;7.07;6.20;;;15.40;99.60;;;;;;5053568;28;20215;-88
2023/10/07 08:01:45;;;;;;;5.85;5.22;;;15.50;99.30;;;;;;5044123;28;20189;-90
2023/10/07 08:04:17;;;;;;;9.07;5.53;;;16.10;99.30;;;;;;5058021;28;20268;-88
2023/10/07 08:06:45;;;;;;;6.72;4.90;;;16.00;99.00;;;;;;5052822;28;20256;-88
2023/10/07 08:09:11;;;;;;;10.10;4.25;;;16.10;98.50;;;;;;5036208;28;20193;-88
2023/10/07 08:11:37;;;;;;;6.70;4.45;;;16.90;98.30;;;;;;5051464;28;20181;-87
2023/10/07 08:14:11;;;;;;;7.13;5.10;;;17.10;97.30;;;;;;5049144;28;20205;-89
2023/10/07 08:16:50;;;;;;;9.20;5.70;;;17.30;95.90;;;;;;5057273;28;20243;-89
2023/10/07 08:19:20;;;;;;;7.90;5.60;;;17.90;94.90;;;;;;5055005;28;20201;-88
2023/10/07 08:21:51;;;;;;;6.32;4.72;;;18.40;94.00;;;;;;5052517;28;20212;-87
2023/10/07 08:24:18;;;;;;;7.00;4.80;;;18.80;92.80;;;;;;5053468;28;20477;-90
2023/10/07 08:26:48;;;;;;;7.70;4.00;;;19.20;92.80;;;;;;5049636;28;20181;-91
2023/10/07 08:29:30;;;;;;;7.40;3.70;;;19.60;92.60;;;;;;5054224;28;20301;-90
2023/10/07 08:31:57;;;;;;;7.45;4.22;;;19.70;91.60;;;;;;5058958;28;20192;-89
2023/10/07 08:34:24;;;;;;;5.20;4.13;;;19.80;91.00;;;;;;5056707;28;20182;-91
2023/10/07 08:36:59;;;;;;;6.40;5.68;;;19.40;89.70;;;;;;5089989;28;20176;-91
2023/10/07 08:39:27;;;;;;;5.10;3.95;;;20.20;91.00;;;;;;5059507;28;20220;-91
2023/10/07 08:41:58;;;;;;;8.77;4.55;;;20.00;90.30;;;;;;5052873;28;20178;-91
2023/10/07 08:44:31;;;;;;;5.25;4.65;;;20.60;89.30;;;;;;5052309;28;20260;-91
2023/10/07 08:47:05;;;;;;;6.68;4.60;;;21.00;88.10;;;;;;5053056;28;20181;-90
2023/10/07 08:49:35;;;;;;;5.47;4.28;;;21.20;85.40;;;;;;5055336;28;20256;-91
2023/10/07 08:57:28;;;;;;;5.20;4.20;;;21.40;83.00;;;;;;5278261;22;20262;-92
2023/10/07 08:59:59;;;;;;;6.47;5.53;;;23.90;85.30;;;;;;5075301;28;20474;-92
2023/10/07 09:05:19;;;;;;;7.70;5.20;;;21.10;81.40;;;;;;5046589;28;20710;-91
2023/10/07 09:07:49;;;;;;;5.72;5.13;;;22.90;85.20;;;;;;5058480;28;20190;-92
2023/10/07 09:10:16;;;;;;;7.38;5.00;;;23.50;86.70;;;;;;5040084;28;20324;-91
2023/10/07 09:12:56;;;;;;;7.55;6.07;;;21.10;84.90;;;;;;5038809;28;20205;-91
2023/10/07 09:15:42;;;;;;;6.20;4.90;;;23.10;85.60;;;;;;5035818;28;22081;-90
2023/10/07 09:18:10;;;;;;;6.85;4.88;;;20.80;84.50;;;;;;5055651;28;20182;-91
2023/10/07 09:20:45;;;;;;;6.40;5.78;;;19.30;83.40;;;;;;5034929;28;20218;-90
2023/10/07 09:23:47;;;;;;;6.50;5.25;;;22.70;86.30;;;;;;5037645;28;20220;-90
2023/10/07 09:26:21;;;;;;;5.80;4.95;;;20.70;84.70;;;;;;5056289;28;20241;-89
2023/10/07 09:28:51;;;;;;;5.90;4.90;;;22.80;85.30;;;;;;5047322;28;20233;-88
2023/10/07 09:31:23;;;;;;;7.03;5.70;;;22.50;85.40;;;;;;5050924;28;20208;-89
2023/10/07 09:33:55;;;;;;;6.60;5.05;;;22.70;85.80;;;;;;5039221;28;20453;-89
2023/10/07 09:36:40;;;;;;;7.53;4.90;;;22.60;85.50;;;;;;5045247;28;20174;-89
2023/10/07 09:39:31;;;;;;;7.45;5.32;;;20.70;83.00;;;;;;5052836;28;20213;-89
2023/10/07 09:42:05;;;;;;;8.43;5.63;;;20.50;83.10;;;;;;5043158;28;20249;-89
2023/10/07 09:44:38;;;;;;;7.43;5.50;;;22.20;86.50;;;;;;5051729;28;20189;-88
2023/10/07 09:47:10;;;;;;;9.85;6.10;;;20.50;84.70;;;;;;5031075;28;20479;-89
2023/10/07 09:49:36;;;;;;;8.93;5.30;;;21.30;85.50;;;;;;5034170;28;20261;-88
2023/10/07 09:52:15;;;;;;;5.83;5.13;;;20.10;85.10;;;;;;5029441;28;20214;-87
2023/10/07 09:55:06;;;;;;;7.00;6.30;;;20.40;86.30;;;;;;5037134;28;20190;-89
2023/10/07 09:57:46;;;;;;;6.95;5.13;;;20.10;85.70;;;;;;5048816;28;20205;-89
2023/10/07 10:00:40;;;;;;;6.63;5.05;;;20.20;85.90;;;;;;5037830;28;20438;-92
2023/10/07 10:07:25;;;;;;;7.80;5.43;;;20.50;86.80;;;;;;5035821;28;20189;-91
2023/10/07 10:10:06;;;;;;;9.52;5.57;;;20.20;85.60;;;;;;5038366;28;20662;-91
2023/10/07 10:20:11;;;;;;;6.20;5.10;;;21.20;83.10;;;;;;4982938;28;20645;-90
2023/10/07 10:25:51;;;;;;;4.73;3.20;;;21.50;71.00;;;;;;5068685;28;20227;-91
2023/10/07 10:34:22;;;;;;;3.97;2.67;;;21.60;69.10;;;;;;5111207;22;20486;-91
2023/10/07 10:37:40;;;;;;;4.20;2.93;;;22.10;70.50;;;;;;5096492;28;20509;-92
2023/10/07 10:40:16;;;;;;;3.40;2.50;;;21.70;68.10;;;;;;5072215;28;20234;-91
2023/10/07 10:42:52;;;;;;;4.77;2.47;;;21.70;69.90;;;;;;5316289;22;20477;-93
2023/10/07 10:46:26;;;;;;;4.23;3.30;;;22.20;73.30;;;;;;5052409;28;20462;-93
2023/10/07 10:48:54;;;;;;;4.47;2.90;;;22.10;68.80;;;;;;5017987;28;20442;-88
2023/10/07 10:51:20;;;;;;;4.17;2.50;;;21.90;65.80;;;;;;5024488;28;20454;-87
2023/10/07 10:53:47;;;;;;;4.83;3.13;;;22.90;68.10;;;;;;5010495;28;20465;-85
2023/10/07 10:56:16;;;;;;;5.33;3.90;;;24.50;70.10;;;;;;4998671;28;20191;-88
2023/10/07 10:58:43;;;;;;;3.50;3.10;;;23.50;70.00;;;;;;4996236;28;20442;-92
2023/10/07 11:01:11;;;;;;;3.80;3.20;;;22.10;67.40;;;;;;5009408;28;20448;-91
2023/10/07 11:03:46;;;;;;;4.40;3.47;;;22.40;70.00;;;;;;5007809;28;20462;-91
2023/10/07 11:06:12;;;;;;;4.57;3.17;;;23.60;68.20;;;;;;5055925;28;20427;-92
2023/10/07 11:08:38;;;;;;;3.70;3.00;;;24.90;71.80;;;;;;5032849;28;20654;-90
2023/10/07 11:11:10;;;;;;;5.33;4.83;;;25.20;70.40;;;;;;5050123;28;20432;-91
2023/10/07 11:13:39;;;;;;;5.57;4.00;;;23.00;69.50;;;;;;5035548;28;20447;-91
2023/10/07 11:16:12;;;;;;;4.90;3.80;;;23.30;71.20;;;;;;5050264;28;20985;-91
2023/10/07 11:18:46;;;;;;;3.97;3.30;;;22.70;69.70;;;;;;5043300;28;20423;-93
2023/10/07 11:21:18;;;;;;;3.37;2.80;;;23.30;69.20;;;;;;5056825;28;20463;-92
2023/10/07 11:23:49;;;;;;;3.50;3.20;;;22.20;65.90;;;;;;5060574;28;20462;-91
2023/10/07 11:26:17;;;;;;;3.73;3.20;;;24.80;67.90;;;;;;5065025;28;20456;-92
2023/10/07 11:28:48;;;;;;;3.70;2.80;;;23.70;70.30;;;;;;5058703;28;20503;-91
2023/10/07 11:31:20;;;;;;;3.30;2.93;;;22.80;65.60;;;;;;5053355;28;20474;-89
2023/10/07 11:40:11;;;;;;;5.50;3.80;;;22.60;66.10;;;;;;5198213;22;20509;-91
2023/10/07 11:42:37;;;;;;;4.07;3.67;;;22.40;66.10;;;;;;5055883;28;20462;-87
2023/10/07 11:45:05;;;;;;;3.87;3.17;;;24.10;69.60;;;;;;5073420;28;20442;-87
2023/10/07 11:47:31;;;;;;;5.90;3.20;;;22.20;67.20;;;;;;5070572;28;20430;-85
2023/10/07 11:49:56;;;;;;;3.70;2.97;;;22.20;69.10;;;;;;5080232;28;20434;-85
2023/10/07 11:52:22;;;;;;;5.10;4.23;;;23.80;72.40;;;;;;5077607;28;20212;-87
2023/10/07 11:54:48;;;;;;;3.23;2.73;;;22.90;68.90;;;;;;5074389;28;20648;-86
2023/10/07 11:57:21;;;;;;;6.80;3.63;;;22.30;66.80;;;;;;5066209;28;20192;-85
2023/10/07 11:59:48;;;;;;;4.53;3.20;;;22.40;66.20;;;;;;5068921;28;20990;-85
2023/10/07 12:02:14;;;;;;;6.50;3.20;;;22.10;65.80;;;;;;5069642;28;20446;-84
2023/10/07 12:04:48;;;;;;;4.20;3.40;;;22.60;68.60;;;;;;5070772;28;20981;-86
2023/10/07 12:07:15;;;;;;;4.03;2.97;;;22.40;67.90;;;;;;5088321;28;20503;-86
2023/10/07 12:09:41;;;;;;;3.00;2.47;;;22.50;69.20;;;;;;5071641;28;20451;-86
2023/10/07 12:12:09;;;;;;;4.27;3.00;;;22.60;66.50;;;;;;5067147;28;20865;-86
2023/10/07 12:14:36;;;;;;;4.00;2.80;;;23.10;67.20;;;;;;5066097;28;20887;-86
2023/10/07 12:17:04;;;;;;;3.87;2.83;;;22.90;67.70;;;;;;5070200;28;20437;-86
2023/10/07 12:19:30;;;;;;;4.10;2.97;;;22.40;66.10;;;;;;5069699;28;20462;-86
2023/10/07 12:21:56;;;;;;;4.70;3.50;;;22.70;66.70;;;;;;5094495;28;20440;-85
2023/10/07 12:24:22;;;;;;;3.97;2.97;;;22.20;65.70;;;;;;5071857;28;20790;-86
2023/10/07 12:26:51;;;;;;;4.90;3.80;;;22.70;66.00;;;;;;5071886;28;20431;-86
2023/10/07 12:29:18;;;;;;;4.90;3.93;;;22.70;67.70;;;;;;5067350;28;20181;-86
2023/10/07 12:31:45;;;;;;;4.83;3.03;;;22.60;69.20;;;;;;5066508;28;20438;-81
2023/10/07 12:34:18;;;;;;;3.90;3.13;;;22.70;71.20;;;;;;5067693;28;20500;-86
2023/10/07 12:36:44;;;;;;;4.20;2.90;;;23.00;68.60;;;;;;5070498;28;20465;-86
2023/10/07 12:39:14;;;;;;;6.40;3.53;;;23.10;72.20;;;;;;5072395;28;20457;-85
2023/10/07 12:41:43;;;;;;;4.83;3.60;;;23.30;70.40;;;;;;5071436;28;20473;-85
2023/10/07 12:44:10;;;;;;;5.47;2.90;;;22.90;69.10;;;;;;5076441;28;20453;-84
2023/10/07 12:46:41;;;;;;;4.87;3.73;;;23.00;67.10;;;;;;5067266;28;20832;-83
2023/10/07 12:49:11;;;;;;;5.47;3.33;;;22.70;67.40;;;;;;5066692;28;20449;-86
2023/10/07 12:51:38;;;;;;;5.13;3.10;;;22.80;69.60;;;;;;5064958;28;20443;-84
2023/10/07 12:54:08;;;;;;;5.03;2.90;;;22.90;70.80;;;;;;5076271;28;20454;-85
2023/10/07 12:56:36;;;;;;;4.17;3.10;;;22.70;69.50;;;;;;5067868;28;20490;-87
2023/10/07 12:59:07;;;;;;;3.60;2.90;;;22.80;68.80;;;;;;5067768;28;20478;-87
2023/10/07 13:01:33;;;;;;;6.03;3.07;;;23.30;70.60;;;;;;5072933;28;20470;-88
2023/10/07 13:03:59;;;;;;;3.63;3.13;;;23.20;71.70;;;;;;5082542;28;20496;-85
2023/10/07 13:06:25;;;;;;;5.07;4.07;;;23.60;71.60;;;;;;5078238;28;20450;-83
2023/10/07 13:08:51;;;;;;;4.60;3.60;;;23.20;71.50;;;;;;5075995;28;20176;-84
2023/10/07 13:11:20;;;;;;;6.37;3.73;;;22.80;68.10;;;;;;5093056;28;20452;-84
2023/10/07 13:13:46;;;;;;;4.17;3.67;;;22.70;69.40;;;;;;5061330;28;20205;-83
2023/10/07 13:16:13;;;;;;;5.27;3.60;;;22.50;70.60;;;;;;5068374;28;20576;-83
2023/10/07 13:18:39;;;;;;;3.90;3.03;;;22.40;70.70;;;;;;5075512;28;20293;-83
2023/10/07 13:21:13;;;;;;;5.20;3.47;;;22.30;70.30;;;;;;5077914;28;20453;-83
2023/10/07 13:23:39;;;;;;;5.80;3.63;;;22.50;71.30;;;;;;5089694;28;20482;-84
2023/10/07 13:26:08;;;;;;;7.90;5.40;;;22.40;72.40;;;;;;5059767;28;20446;-83
2023/10/07 13:28:37;;;;;;;6.63;4.43;;;23.10;73.50;;;;;;5082444;28;20438;-83
2023/10/07 13:31:07;;;;;;;4.47;3.77;;;22.40;73.10;;;;;;5076245;28;20462;-83
2023/10/07 13:33:36;;;;;;;4.90;3.33;;;22.40;72.40;;;;;;5084033;28;20455;-84
2023/10/07 13:36:03;;;;;;;5.03;3.00;;;22.40;72.80;;;;;;5074117;28;20873;-84
2023/10/07 13:38:30;;;;;;;3.93;2.80;;;22.20;72.30;;;;;;5066863;28;20456;-84
2023/10/07 13:40:56;;;;;;;4.53;3.13;;;22.30;71.00;;;;;;5071830;28;20451;-83
2023/10/07 13:43:22;;;;;;;5.07;3.23;;;21.90;71.30;;;;;;5069384;28;20529;-87
2023/10/07 13:45:47;;;;;;;3.23;2.77;;;22.40;73.40;;;;;;5087075;28;20459;-86
2023/10/07 13:48:13;;;;;;;5.57;3.00;;;22.10;72.70;;;;;;5093704;28;20180;-85
2023/10/07 13:50:40;;;;;;;4.43;3.13;;;22.50;73.20;;;;;;5070090;28;20183;-83
2023/10/07 13:58:05;;;;;;;4.37;3.30;;;22.00;75.00;;;;;;5091587;28;20183;-86
2023/10/07 14:00:36;;;;;;;4.10;3.50;;;22.20;76.20;;;;;;5077113;28;20450;-86
2023/10/07 14:03:06;;;;;;;3.80;3.37;;;22.20;77.70;;;;;;5056055;28;20196;-85
2023/10/07 14:05:41;;;;;;;4.33;2.90;;;22.00;77.70;;;;;;5068217;28;20435;-83
2023/10/07 14:08:15;;;;;;;4.77;3.80;;;22.50;74.90;;;;;;5075226;28;21058;-86
2023/10/07 14:10:42;;;;;;;4.73;3.50;;;22.20;75.50;;;;;;5066555;28;20429;-86
2023/10/07 14:13:11;;;;;;;4.70;4.30;;;22.00;75.30;;;;;;5067876;28;20457;-86
2023/10/07 14:15:37;;;;;;;5.20;4.67;;;22.20;76.20;;;;;;5085506;28;20513;-86
2023/10/07 14:18:03;;;;;;;7.13;3.80;;;22.50;77.90;;;;;;5058855;28;20442;-83
2023/10/07 14:20:29;;;;;;;5.83;4.03;;;22.10;77.60;;;;;;5068648;28;20315;-85
2023/10/07 14:22:56;;;;;;;4.93;4.43;;;22.60;78.20;;;;;;5071271;28;20231;-83
2023/10/07 14:25:24;;;;;;;10.47;9.03;;;22.70;78.70;;;;;;5075318;28;20688;-86